sensor_id;sensor_type;location;lat;lon;timestamp;P1;durP1;ratioP1;P2;durP2;ratioP2
33902;SDS011;20194;50.950;5.346;2023-02-28T00:00:22;11.90;;;5.07;;
33902;SDS011;20194;50.950;5.346;2023-02-28T00:02:48;12.65;;;4.70;;
33902;SDS011;20194;50.950;5.346;2023-02-28T00:05:15;11.13;;;5.28;;
33902;SDS011;20194;50.950;5.346;2023-02-28T00:07:42;10.23;;;4.97;;
33902;SDS011;20194;50.950;5.346;2023-02-28T00:10:11;11.52;;;4.53;;
33902;SDS011;20194;50.950;5.346;2023-02-28T00:12:38;13.07;;;5.07;;
33902;SDS011;20194;50.950;5.346;2023-02-28T00:15:08;12.43;;;5.18;;
33902;SDS011;20194;50.950;5.346;2023-02-28T00:17:35;11.07;;;5.10;;
33902;SDS011;20194;50.950;5.346;2023-02-28T00:20:01;8.60;;;4.68;;
33902;SDS011;20194;50.950;5.346;2023-02-28T00:22:28;12.30;;;5.30;;
33902;SDS011;20194;50.950;5.346;2023-02-28T00:24:54;11.07;;;5.10;;
33902;SDS011;20194;50.950;5.346;2023-02-28T00:27:19;12.10;;;4.93;;
33902;SDS011;20194;50.950;5.346;2023-02-28T00:29:46;8.13;;;4.85;;
33902;SDS011;20194;50.950;5.346;2023-02-28T00:32:12;11.57;;;5.15;;
33902;SDS011;20194;50.950;5.346;2023-02-28T00:34:38;8.30;;;5.03;;
33902;SDS011;20194;50.950;5.346;2023-02-28T00:37:08;9.02;;;4.88;;
33902;SDS011;20194;50.950;5.346;2023-02-28T00:39:35;8.13;;;4.65;;
33902;SDS011;20194;50.950;5.346;2023-02-28T00:42:02;9.15;;;4.80;;
33902;SDS011;20194;50.950;5.346;2023-02-28T00:44:28;14.05;;;5.60;;
33902;SDS011;20194;50.950;5.346;2023-02-28T00:46:54;9.95;;;5.05;;
33902;SDS011;20194;50.950;5.346;2023-02-28T00:49:21;13.25;;;5.25;;
33902;SDS011;20194;50.950;5.346;2023-02-28T00:51:47;17.25;;;5.47;;
33902;SDS011;20194;50.950;5.346;2023-02-28T00:54:14;10.50;;;5.18;;
33902;SDS011;20194;50.950;5.346;2023-02-28T00:56:40;7.95;;;4.43;;
33902;SDS011;20194;50.950;5.346;2023-02-28T00:59:05;9.90;;;5.07;;
33902;SDS011;20194;50.950;5.346;2023-02-28T01:01:33;7.57;;;5.13;;
33902;SDS011;20194;50.950;5.346;2023-02-28T01:03:59;11.73;;;5.32;;
33902;SDS011;20194;50.950;5.346;2023-02-28T01:06:25;10.70;;;4.78;;
33902;SDS011;20194;50.950;5.346;2023-02-28T01:08:51;15.40;;;5.32;;
33902;SDS011;20194;50.950;5.346;2023-02-28T01:11:17;10.50;;;4.70;;
33902;SDS011;20194;50.950;5.346;2023-02-28T01:13:43;10.85;;;5.22;;
33902;SDS011;20194;50.950;5.346;2023-02-28T01:16:10;9.65;;;4.75;;
33902;SDS011;20194;50.950;5.346;2023-02-28T01:18:36;9.45;;;4.75;;
33902;SDS011;20194;50.950;5.346;2023-02-28T01:21:06;7.82;;;4.82;;
33902;SDS011;20194;50.950;5.346;2023-02-28T01:23:33;9.10;;;5.45;;
33902;SDS011;20194;50.950;5.346;2023-02-28T01:26:09;9.35;;;5.10;;
33902;SDS011;20194;50.950;5.346;2023-02-28T01:28:37;10.55;;;5.38;;
33902;SDS011;20194;50.950;5.346;2023-02-28T01:31:03;12.48;;;5.43;;
33902;SDS011;20194;50.950;5.346;2023-02-28T01:33:29;9.20;;;5.03;;
33902;SDS011;20194;50.950;5.346;2023-02-28T01:35:58;10.60;;;5.65;;
33902;SDS011;20194;50.950;5.346;2023-02-28T01:38:25;9.43;;;5.60;;
33902;SDS011;20194;50.950;5.346;2023-02-28T01:40:51;9.27;;;5.20;;
33902;SDS011;20194;50.950;5.346;2023-02-28T01:43:24;13.63;;;5.32;;
33902;SDS011;20194;50.950;5.346;2023-02-28T01:45:55;8.02;;;4.88;;
33902;SDS011;20194;50.950;5.346;2023-02-28T01:48:23;13.52;;;5.70;;
33902;SDS011;20194;50.950;5.346;2023-02-28T01:50:56;12.45;;;5.43;;
33902;SDS011;20194;50.950;5.346;2023-02-28T01:53:32;9.25;;;5.40;;
33902;SDS011;20194;50.950;5.346;2023-02-28T01:56:03;9.30;;;5.70;;
33902;SDS011;20194;50.950;5.346;2023-02-28T01:58:32;12.55;;;6.60;;
33902;SDS011;20194;50.950;5.346;2023-02-28T02:00:59;11.13;;;5.47;;
33902;SDS011;20194;50.950;5.346;2023-02-28T02:03:25;9.13;;;5.53;;
33902;SDS011;20194;50.950;5.346;2023-02-28T02:05:50;7.78;;;5.03;;
33902;SDS011;20194;50.950;5.346;2023-02-28T02:08:23;11.20;;;5.50;;
33902;SDS011;20194;50.950;5.346;2023-02-28T02:10:52;10.90;;;5.18;;
33902;SDS011;20194;50.950;5.346;2023-02-28T02:13:25;10.88;;;5.63;;
33902;SDS011;20194;50.950;5.346;2023-02-28T02:24:16;9.95;;;5.63;;
33902;SDS011;20194;50.950;5.346;2023-02-28T02:27:03;13.38;;;5.63;;
33902;SDS011;20194;50.950;5.346;2023-02-28T02:33:03;14.05;;;5.70;;
33902;SDS011;20194;50.950;5.346;2023-02-28T02:43:51;8.98;;;5.32;;
33902;SDS011;20194;50.950;5.346;2023-02-28T02:46:20;11.63;;;6.00;;
33902;SDS011;20194;50.950;5.346;2023-02-28T02:49:05;16.02;;;6.00;;
33902;SDS011;20194;50.950;5.346;2023-02-28T02:51:34;13.30;;;5.78;;
33902;SDS011;20194;50.950;5.346;2023-02-28T02:54:25;13.68;;;5.38;;
33902;SDS011;20194;50.950;5.346;2023-02-28T02:56:54;11.93;;;7.13;;
33902;SDS011;20194;50.950;5.346;2023-02-28T02:59:26;15.93;;;6.43;;
33902;SDS011;20194;50.950;5.346;2023-02-28T03:02:03;11.93;;;6.25;;
33902;SDS011;20194;50.950;5.346;2023-02-28T03:04:33;10.20;;;5.30;;
33902;SDS011;20194;50.950;5.346;2023-02-28T03:07:05;12.23;;;6.50;;
33902;SDS011;20194;50.950;5.346;2023-02-28T03:09:32;13.02;;;5.68;;
33902;SDS011;20194;50.950;5.346;2023-02-28T03:12:00;10.52;;;5.88;;
33902;SDS011;20194;50.950;5.346;2023-02-28T03:17:24;13.02;;;5.90;;
33902;SDS011;20194;50.950;5.346;2023-02-28T03:33:43;15.13;;;6.30;;
33902;SDS011;20194;50.950;5.346;2023-02-28T03:36:20;11.73;;;6.25;;
33902;SDS011;20194;50.950;5.346;2023-02-28T03:41:51;13.82;;;6.97;;
33902;SDS011;20194;50.950;5.346;2023-02-28T03:44:18;12.43;;;6.22;;
33902;SDS011;20194;50.950;5.346;2023-02-28T03:46:52;15.43;;;6.95;;
33902;SDS011;20194;50.950;5.346;2023-02-28T03:49:32;14.30;;;6.55;;
33902;SDS011;20194;50.950;5.346;2023-02-28T03:52:04;14.98;;;6.70;;
33902;SDS011;20194;50.950;5.346;2023-02-28T03:54:34;16.40;;;6.63;;
33902;SDS011;20194;50.950;5.346;2023-02-28T03:59:59;8.77;;;5.53;;
33902;SDS011;20194;50.950;5.346;2023-02-28T04:02:32;10.32;;;5.70;;
33902;SDS011;20194;50.950;5.346;2023-02-28T04:04:59;17.70;;;6.10;;
33902;SDS011;20194;50.950;5.346;2023-02-28T04:07:28;13.90;;;5.90;;
33902;SDS011;20194;50.950;5.346;2023-02-28T04:10:02;13.77;;;6.22;;
33902;SDS011;20194;50.950;5.346;2023-02-28T04:12:29;15.35;;;6.63;;
33902;SDS011;20194;50.950;5.346;2023-02-28T04:14:55;14.07;;;5.82;;
33902;SDS011;20194;50.950;5.346;2023-02-28T04:17:20;14.93;;;5.72;;
33902;SDS011;20194;50.950;5.346;2023-02-28T04:19:46;12.45;;;6.38;;
33902;SDS011;20194;50.950;5.346;2023-02-28T04:22:12;10.02;;;5.90;;
33902;SDS011;20194;50.950;5.346;2023-02-28T04:24:38;18.70;;;7.13;;
33902;SDS011;20194;50.950;5.346;2023-02-28T04:27:06;14.18;;;6.80;;
33902;SDS011;20194;50.950;5.346;2023-02-28T04:29:34;12.57;;;6.45;;
33902;SDS011;20194;50.950;5.346;2023-02-28T04:32:00;9.43;;;5.97;;
33902;SDS011;20194;50.950;5.346;2023-02-28T04:34:27;10.60;;;6.57;;
33902;SDS011;20194;50.950;5.346;2023-02-28T04:36:55;13.98;;;6.05;;
33902;SDS011;20194;50.950;5.346;2023-02-28T04:39:21;14.38;;;5.70;;
33902;SDS011;20194;50.950;5.346;2023-02-28T04:41:48;16.48;;;6.90;;
33902;SDS011;20194;50.950;5.346;2023-02-28T04:44:13;15.15;;;7.15;;
33902;SDS011;20194;50.950;5.346;2023-02-28T04:46:40;12.90;;;7.00;;
33902;SDS011;20194;50.950;5.346;2023-02-28T04:49:06;13.57;;;6.30;;
33902;SDS011;20194;50.950;5.346;2023-02-28T04:51:31;11.73;;;6.65;;
33902;SDS011;20194;50.950;5.346;2023-02-28T04:53:57;14.30;;;6.20;;
33902;SDS011;20194;50.950;5.346;2023-02-28T04:56:23;13.02;;;6.18;;
33902;SDS011;20194;50.950;5.346;2023-02-28T04:58:49;12.00;;;6.68;;
33902;SDS011;20194;50.950;5.346;2023-02-28T05:01:19;13.38;;;6.20;;
33902;SDS011;20194;50.950;5.346;2023-02-28T05:03:48;11.52;;;5.85;;
33902;SDS011;20194;50.950;5.346;2023-02-28T05:06:14;10.10;;;6.30;;
33902;SDS011;20194;50.950;5.346;2023-02-28T05:08:41;14.75;;;6.32;;
33902;SDS011;20194;50.950;5.346;2023-02-28T05:11:15;16.48;;;6.65;;
33902;SDS011;20194;50.950;5.346;2023-02-28T05:13:43;13.52;;;6.55;;
33902;SDS011;20194;50.950;5.346;2023-02-28T05:16:10;15.10;;;5.90;;
33902;SDS011;20194;50.950;5.346;2023-02-28T05:18:36;14.25;;;6.45;;
33902;SDS011;20194;50.950;5.346;2023-02-28T05:21:02;13.80;;;6.95;;
33902;SDS011;20194;50.950;5.346;2023-02-28T05:23:28;12.60;;;7.63;;
33902;SDS011;20194;50.950;5.346;2023-02-28T05:25:53;16.15;;;6.93;;
33902;SDS011;20194;50.950;5.346;2023-02-28T05:28:20;10.45;;;6.57;;
33902;SDS011;20194;50.950;5.346;2023-02-28T05:30:46;15.35;;;7.30;;
33902;SDS011;20194;50.950;5.346;2023-02-28T05:33:12;15.73;;;7.30;;
33902;SDS011;20194;50.950;5.346;2023-02-28T05:35:39;19.08;;;7.82;;
33902;SDS011;20194;50.950;5.346;2023-02-28T05:38:05;14.27;;;6.97;;
33902;SDS011;20194;50.950;5.346;2023-02-28T05:40:31;17.30;;;7.47;;
33902;SDS011;20194;50.950;5.346;2023-02-28T05:42:57;15.05;;;7.38;;
33902;SDS011;20194;50.950;5.346;2023-02-28T05:45:22;9.90;;;6.55;;
33902;SDS011;20194;50.950;5.346;2023-02-28T05:47:48;9.38;;;5.93;;
33902;SDS011;20194;50.950;5.346;2023-02-28T05:50:18;13.00;;;6.93;;
33902;SDS011;20194;50.950;5.346;2023-02-28T05:52:44;13.55;;;7.25;;
33902;SDS011;20194;50.950;5.346;2023-02-28T05:55:09;13.80;;;6.63;;
33902;SDS011;20194;50.950;5.346;2023-02-28T05:57:35;15.80;;;7.70;;
33902;SDS011;20194;50.950;5.346;2023-02-28T06:00:01;14.55;;;7.25;;
33902;SDS011;20194;50.950;5.346;2023-02-28T06:02:28;15.50;;;7.28;;
33902;SDS011;20194;50.950;5.346;2023-02-28T06:04:54;14.85;;;7.43;;
33902;SDS011;20194;50.950;5.346;2023-02-28T06:07:19;11.85;;;6.75;;
33902;SDS011;20194;50.950;5.346;2023-02-28T06:09:47;15.13;;;7.00;;
33902;SDS011;20194;50.950;5.346;2023-02-28T06:12:13;19.88;;;8.15;;
33902;SDS011;20194;50.950;5.346;2023-02-28T06:14:39;13.25;;;7.00;;
33902;SDS011;20194;50.950;5.346;2023-02-28T06:17:04;19.45;;;7.05;;
33902;SDS011;20194;50.950;5.346;2023-02-28T06:19:30;17.80;;;7.82;;
33902;SDS011;20194;50.950;5.346;2023-02-28T06:21:56;19.50;;;7.75;;
33902;SDS011;20194;50.950;5.346;2023-02-28T06:24:23;19.27;;;8.07;;
33902;SDS011;20194;50.950;5.346;2023-02-28T06:26:49;14.93;;;7.75;;
33902;SDS011;20194;50.950;5.346;2023-02-28T06:29:16;15.25;;;7.68;;
33902;SDS011;20194;50.950;5.346;2023-02-28T06:31:43;18.70;;;8.07;;
33902;SDS011;20194;50.950;5.346;2023-02-28T06:34:10;20.40;;;8.10;;
33902;SDS011;20194;50.950;5.346;2023-02-28T06:36:37;20.08;;;7.45;;
33902;SDS011;20194;50.950;5.346;2023-02-28T06:39:03;16.95;;;8.18;;
33902;SDS011;20194;50.950;5.346;2023-02-28T06:41:29;19.02;;;7.95;;
33902;SDS011;20194;50.950;5.346;2023-02-28T06:43:55;16.83;;;8.38;;
33902;SDS011;20194;50.950;5.346;2023-02-28T06:46:22;17.98;;;7.80;;
33902;SDS011;20194;50.950;5.346;2023-02-28T06:48:48;20.00;;;6.50;;
33902;SDS011;20194;50.950;5.346;2023-02-28T06:51:16;12.68;;;6.75;;
33902;SDS011;20194;50.950;5.346;2023-02-28T06:53:45;22.85;;;8.05;;
33902;SDS011;20194;50.950;5.346;2023-02-28T06:56:12;16.35;;;7.03;;
33902;SDS011;20194;50.950;5.346;2023-02-28T06:58:39;15.82;;;7.43;;
33902;SDS011;20194;50.950;5.346;2023-02-28T07:01:06;12.63;;;6.80;;
33902;SDS011;20194;50.950;5.346;2023-02-28T07:03:32;22.13;;;7.78;;
33902;SDS011;20194;50.950;5.346;2023-02-28T07:05:59;16.90;;;6.90;;
33902;SDS011;20194;50.950;5.346;2023-02-28T07:08:26;17.60;;;8.70;;
33902;SDS011;20194;50.950;5.346;2023-02-28T07:10:55;12.63;;;7.65;;
33902;SDS011;20194;50.950;5.346;2023-02-28T07:13:21;13.48;;;6.95;;
33902;SDS011;20194;50.950;5.346;2023-02-28T07:18:24;16.15;;;6.97;;
33902;SDS011;20194;50.950;5.346;2023-02-28T07:20:50;11.25;;;6.38;;
33902;SDS011;20194;50.950;5.346;2023-02-28T07:23:16;17.83;;;7.80;;
33902;SDS011;20194;50.950;5.346;2023-02-28T07:25:42;15.88;;;7.22;;
33902;SDS011;20194;50.950;5.346;2023-02-28T07:28:08;15.15;;;5.93;;
33902;SDS011;20194;50.950;5.346;2023-02-28T07:30:34;15.20;;;7.05;;
33902;SDS011;20194;50.950;5.346;2023-02-28T07:33:00;13.07;;;5.88;;
33902;SDS011;20194;50.950;5.346;2023-02-28T07:35:25;10.85;;;6.10;;
33902;SDS011;20194;50.950;5.346;2023-02-28T07:37:51;10.65;;;6.20;;
33902;SDS011;20194;50.950;5.346;2023-02-28T07:40:17;11.68;;;6.28;;
33902;SDS011;20194;50.950;5.346;2023-02-28T07:42:43;12.32;;;6.07;;
33902;SDS011;20194;50.950;5.346;2023-02-28T07:45:10;14.70;;;6.32;;
33902;SDS011;20194;50.950;5.346;2023-02-28T07:47:37;18.05;;;6.53;;
33902;SDS011;20194;50.950;5.346;2023-02-28T07:50:04;15.40;;;5.78;;
33902;SDS011;20194;50.950;5.346;2023-02-28T07:52:31;15.88;;;6.57;;
33902;SDS011;20194;50.950;5.346;2023-02-28T07:54:57;18.95;;;6.40;;
33902;SDS011;20194;50.950;5.346;2023-02-28T07:57:23;13.23;;;5.13;;
33902;SDS011;20194;50.950;5.346;2023-02-28T07:59:48;9.98;;;5.47;;
33902;SDS011;20194;50.950;5.346;2023-02-28T08:02:15;13.30;;;6.28;;
33902;SDS011;20194;50.950;5.346;2023-02-28T08:04:42;16.73;;;5.68;;
33902;SDS011;20194;50.950;5.346;2023-02-28T08:07:08;9.32;;;5.43;;
33902;SDS011;20194;50.950;5.346;2023-02-28T08:09:38;12.80;;;6.18;;
33902;SDS011;20194;50.950;5.346;2023-02-28T08:12:04;15.25;;;5.60;;
33902;SDS011;20194;50.950;5.346;2023-02-28T08:14:31;13.63;;;5.88;;
33902;SDS011;20194;50.950;5.346;2023-02-28T08:16:56;7.72;;;4.90;;
33902;SDS011;20194;50.950;5.346;2023-02-28T08:19:22;9.55;;;5.05;;
33902;SDS011;20194;50.950;5.346;2023-02-28T08:21:48;9.30;;;5.05;;
33902;SDS011;20194;50.950;5.346;2023-02-28T08:24:14;11.15;;;5.28;;
33902;SDS011;20194;50.950;5.346;2023-02-28T08:26:39;13.13;;;5.35;;
33902;SDS011;20194;50.950;5.346;2023-02-28T08:29:06;13.02;;;5.05;;
33902;SDS011;20194;50.950;5.346;2023-02-28T08:31:31;8.50;;;5.03;;
33902;SDS011;20194;50.950;5.346;2023-02-28T08:33:57;15.98;;;5.20;;
33902;SDS011;20194;50.950;5.346;2023-02-28T08:36:24;10.07;;;5.40;;
33902;SDS011;20194;50.950;5.346;2023-02-28T08:38:51;9.63;;;4.97;;
33902;SDS011;20194;50.950;5.346;2023-02-28T08:41:17;10.98;;;5.00;;
33902;SDS011;20194;50.950;5.346;2023-02-28T08:43:43;14.13;;;5.45;;
33902;SDS011;20194;50.950;5.346;2023-02-28T08:46:11;9.77;;;4.97;;
33902;SDS011;20194;50.950;5.346;2023-02-28T08:48:38;15.73;;;5.28;;
33902;SDS011;20194;50.950;5.346;2023-02-28T08:53:32;12.10;;;3.88;;
33902;SDS011;20194;50.950;5.346;2023-02-28T08:55:59;11.68;;;4.13;;
33902;SDS011;20194;50.950;5.346;2023-02-28T08:58:33;7.25;;;3.65;;
33902;SDS011;20194;50.950;5.346;2023-02-28T09:01:00;7.60;;;3.38;;
33902;SDS011;20194;50.950;5.346;2023-02-28T09:03:26;19.02;;;3.92;;
33902;SDS011;20194;50.950;5.346;2023-02-28T09:05:55;5.93;;;3.70;;
33902;SDS011;20194;50.950;5.346;2023-02-28T09:08:23;9.68;;;3.97;;
33902;SDS011;20194;50.950;5.346;2023-02-28T09:10:50;9.52;;;4.05;;
33902;SDS011;20194;50.950;5.346;2023-02-28T09:13:16;6.53;;;3.22;;
33902;SDS011;20194;50.950;5.346;2023-02-28T09:15:42;7.05;;;3.67;;
33902;SDS011;20194;50.950;5.346;2023-02-28T09:18:08;5.13;;;3.20;;
33902;SDS011;20194;50.950;5.346;2023-02-28T09:20:33;7.85;;;3.15;;
33902;SDS011;20194;50.950;5.346;2023-02-28T09:23:02;8.73;;;4.22;;
33902;SDS011;20194;50.950;5.346;2023-02-28T09:25:28;3.92;;;2.60;;
33902;SDS011;20194;50.950;5.346;2023-02-28T09:27:54;6.55;;;3.58;;
33902;SDS011;20194;50.950;5.346;2023-02-28T09:30:19;5.80;;;2.20;;
33902;SDS011;20194;50.950;5.346;2023-02-28T09:32:45;6.18;;;3.08;;
33902;SDS011;20194;50.950;5.346;2023-02-28T09:35:17;2.88;;;2.38;;
33902;SDS011;20194;50.950;5.346;2023-02-28T09:37:44;3.55;;;2.17;;
33902;SDS011;20194;50.950;5.346;2023-02-28T09:40:10;7.03;;;2.95;;
33902;SDS011;20194;50.950;5.346;2023-02-28T09:42:37;3.38;;;2.30;;
33902;SDS011;20194;50.950;5.346;2023-02-28T09:45:08;4.57;;;2.45;;
33902;SDS011;20194;50.950;5.346;2023-02-28T09:47:46;2.20;;;1.42;;
33902;SDS011;20194;50.950;5.346;2023-02-28T09:50:33;7.38;;;2.35;;
33902;SDS011;20194;50.950;5.346;2023-02-28T09:53:06;8.27;;;2.38;;
33902;SDS011;20194;50.950;5.346;2023-02-28T09:55:53;5.97;;;2.15;;
33902;SDS011;20194;50.950;5.346;2023-02-28T09:58:26;4.80;;;2.20;;
33902;SDS011;20194;50.950;5.346;2023-02-28T10:01:00;9.73;;;2.53;;
33902;SDS011;20194;50.950;5.346;2023-02-28T10:03:49;3.88;;;2.15;;
33902;SDS011;20194;50.950;5.346;2023-02-28T10:06:18;3.92;;;2.55;;
33902;SDS011;20194;50.950;5.346;2023-02-28T10:08:58;4.00;;;2.42;;
33902;SDS011;20194;50.950;5.346;2023-02-28T10:11:32;3.47;;;2.10;;
33902;SDS011;20194;50.950;5.346;2023-02-28T10:19:10;4.18;;;2.85;;
33902;SDS011;20194;50.950;5.346;2023-02-28T10:21:45;1.92;;;1.73;;
33902;SDS011;20194;50.950;5.346;2023-02-28T10:29:36;3.35;;;2.15;;
33902;SDS011;20194;50.950;5.346;2023-02-28T10:32:04;5.88;;;2.08;;
33902;SDS011;20194;50.950;5.346;2023-02-28T10:34:30;5.45;;;2.03;;
33902;SDS011;20194;50.950;5.346;2023-02-28T10:36:56;4.78;;;2.15;;
33902;SDS011;20194;50.950;5.346;2023-02-28T10:39:41;4.75;;;2.47;;
33902;SDS011;20194;50.950;5.346;2023-02-28T10:45:13;5.10;;;2.17;;
33902;SDS011;20194;50.950;5.346;2023-02-28T10:47:42;4.38;;;2.10;;
33902;SDS011;20194;50.950;5.346;2023-02-28T10:53:16;2.88;;;1.98;;
33902;SDS011;20194;50.950;5.346;2023-02-28T10:55:59;2.83;;;1.90;;
33902;SDS011;20194;50.950;5.346;2023-02-28T11:01:18;8.10;;;2.00;;
33902;SDS011;20194;50.950;5.346;2023-02-28T11:04:01;3.45;;;2.13;;
33902;SDS011;20194;50.950;5.346;2023-02-28T11:06:29;7.50;;;1.98;;
33902;SDS011;20194;50.950;5.346;2023-02-28T11:11:44;3.72;;;1.95;;
33902;SDS011;20194;50.950;5.346;2023-02-28T11:14:25;4.20;;;2.05;;
33902;SDS011;20194;50.950;5.346;2023-02-28T11:16:53;3.17;;;1.92;;
33902;SDS011;20194;50.950;5.346;2023-02-28T11:19:23;2.80;;;1.75;;
33902;SDS011;20194;50.950;5.346;2023-02-28T11:21:55;3.42;;;1.75;;
33902;SDS011;20194;50.950;5.346;2023-02-28T11:24:28;3.95;;;2.05;;
33902;SDS011;20194;50.950;5.346;2023-02-28T11:26:58;3.75;;;2.03;;
33902;SDS011;20194;50.950;5.346;2023-02-28T11:29:25;7.32;;;2.58;;
33902;SDS011;20194;50.950;5.346;2023-02-28T11:32:27;3.50;;;1.95;;
33902;SDS011;20194;50.950;5.346;2023-02-28T11:37:37;2.22;;;1.80;;
33902;SDS011;20194;50.950;5.346;2023-02-28T11:40:12;3.15;;;1.70;;
33902;SDS011;20194;50.950;5.346;2023-02-28T11:45:50;1.85;;;1.52;;
33902;SDS011;20194;50.950;5.346;2023-02-28T11:48:37;2.05;;;1.83;;
33902;SDS011;20194;50.950;5.346;2023-02-28T12:04:31;2.90;;;2.25;;
33902;SDS011;20194;50.950;5.346;2023-02-28T12:07:07;4.00;;;1.95;;
33902;SDS011;20194;50.950;5.346;2023-02-28T12:15:16;7.85;;;2.22;;
33902;SDS011;20194;50.950;5.346;2023-02-28T12:29:10;4.00;;;2.55;;
33902;SDS011;20194;50.950;5.346;2023-02-28T12:31:56;3.30;;;2.40;;
33902;SDS011;20194;50.950;5.346;2023-02-28T12:34:37;3.70;;;2.20;;
33902;SDS011;20194;50.950;5.346;2023-02-28T12:37:17;3.33;;;2.28;;
33902;SDS011;20194;50.950;5.346;2023-02-28T12:39:51;4.07;;;2.38;;
33902;SDS011;20194;50.950;5.346;2023-02-28T12:42:27;3.53;;;2.13;;
33902;SDS011;20194;50.950;5.346;2023-02-28T12:44:56;4.47;;;2.78;;
33902;SDS011;20194;50.950;5.346;2023-02-28T12:47:26;5.75;;;2.55;;
33902;SDS011;20194;50.950;5.346;2023-02-28T12:52:30;5.88;;;2.55;;
33902;SDS011;20194;50.950;5.346;2023-02-28T12:55:05;3.83;;;2.20;;
33902;SDS011;20194;50.950;5.346;2023-02-28T12:57:39;4.22;;;2.75;;
33902;SDS011;20194;50.950;5.346;2023-02-28T13:00:10;9.30;;;2.70;;
33902;SDS011;20194;50.950;5.346;2023-02-28T13:10:56;3.97;;;2.60;;
33902;SDS011;20194;50.950;5.346;2023-02-28T13:13:26;4.35;;;3.22;;
33902;SDS011;20194;50.950;5.346;2023-02-28T13:16:00;5.75;;;3.00;;
33902;SDS011;20194;50.950;5.346;2023-02-28T13:18:32;5.95;;;2.60;;
33902;SDS011;20194;50.950;5.346;2023-02-28T13:21:05;2.97;;;2.70;;
33902;SDS011;20194;50.950;5.346;2023-02-28T13:27:10;3.47;;;2.88;;
33902;SDS011;20194;50.950;5.346;2023-02-28T13:34:30;4.05;;;2.28;;
33902;SDS011;20194;50.950;5.346;2023-02-28T13:39:56;4.70;;;2.83;;
33902;SDS011;20194;50.950;5.346;2023-02-28T13:47:34;3.75;;;2.85;;
33902;SDS011;20194;50.950;5.346;2023-02-28T14:04:14;8.80;;;2.40;;
33902;SDS011;20194;50.950;5.346;2023-02-28T14:07:20;4.85;;;2.90;;
33902;SDS011;20194;50.950;5.346;2023-02-28T14:09:54;3.50;;;2.85;;
33902;SDS011;20194;50.950;5.346;2023-02-28T14:15:30;6.93;;;2.90;;
33902;SDS011;20194;50.950;5.346;2023-02-28T14:18:22;7.00;;;2.80;;
33902;SDS011;20194;50.950;5.346;2023-02-28T14:29:42;5.85;;;2.85;;
33902;SDS011;20194;50.950;5.346;2023-02-28T14:32:40;7.25;;;3.13;;
33902;SDS011;20194;50.950;5.346;2023-02-28T14:38:27;7.93;;;3.38;;
33902;SDS011;20194;50.950;5.346;2023-02-28T14:40:57;7.88;;;3.20;;
33902;SDS011;20194;50.950;5.346;2023-02-28T14:43:27;5.95;;;3.17;;
33902;SDS011;20194;50.950;5.346;2023-02-28T14:45:57;5.97;;;3.25;;
33902;SDS011;20194;50.950;5.346;2023-02-28T14:48:26;7.18;;;2.97;;
33902;SDS011;20194;50.950;5.346;2023-02-28T14:50:53;3.40;;;2.55;;
33902;SDS011;20194;50.950;5.346;2023-02-28T14:53:22;4.40;;;2.83;;
33902;SDS011;20194;50.950;5.346;2023-02-28T14:55:50;3.58;;;2.85;;
33902;SDS011;20194;50.950;5.346;2023-02-28T15:00:50;5.47;;;2.75;;
33902;SDS011;20194;50.950;5.346;2023-02-28T15:03:19;4.72;;;2.80;;
33902;SDS011;20194;50.950;5.346;2023-02-28T15:05:58;4.07;;;2.60;;
33902;SDS011;20194;50.950;5.346;2023-02-28T15:08:26;7.63;;;2.97;;
33902;SDS011;20194;50.950;5.346;2023-02-28T15:13:47;6.82;;;2.85;;
33902;SDS011;20194;50.950;5.346;2023-02-28T15:18:56;4.18;;;2.25;;
33902;SDS011;20194;50.950;5.346;2023-02-28T15:21:25;5.28;;;3.00;;
33902;SDS011;20194;50.950;5.346;2023-02-28T15:23:59;3.55;;;2.53;;
33902;SDS011;20194;50.950;5.346;2023-02-28T15:26:46;3.55;;;2.90;;
33902;SDS011;20194;50.950;5.346;2023-02-28T15:29:17;6.75;;;2.90;;
33902;SDS011;20194;50.950;5.346;2023-02-28T15:36:52;10.70;;;3.13;;
33902;SDS011;20194;50.950;5.346;2023-02-28T15:39:22;5.53;;;2.50;;
33902;SDS011;20194;50.950;5.346;2023-02-28T15:41:49;3.60;;;2.75;;
33902;SDS011;20194;50.950;5.346;2023-02-28T15:46:57;4.28;;;3.17;;
33902;SDS011;20194;50.950;5.346;2023-02-28T15:49:45;5.47;;;2.95;;
33902;SDS011;20194;50.950;5.346;2023-02-28T15:52:22;8.27;;;3.33;;
33902;SDS011;20194;50.950;5.346;2023-02-28T15:54:52;9.00;;;3.28;;
33902;SDS011;20194;50.950;5.346;2023-02-28T15:57:20;5.03;;;2.92;;
33902;SDS011;20194;50.950;5.346;2023-02-28T15:59:50;7.70;;;2.70;;
33902;SDS011;20194;50.950;5.346;2023-02-28T16:02:41;7.97;;;3.38;;
33902;SDS011;20194;50.950;5.346;2023-02-28T16:07:36;3.58;;;2.55;;
33902;SDS011;20194;50.950;5.346;2023-02-28T16:10:03;9.25;;;3.25;;
33902;SDS011;20194;50.950;5.346;2023-02-28T16:12:32;8.70;;;2.63;;
33902;SDS011;20194;50.950;5.346;2023-02-28T16:15:00;5.13;;;3.17;;
33902;SDS011;20194;50.950;5.346;2023-02-28T16:17:31;4.18;;;3.45;;
33902;SDS011;20194;50.950;5.346;2023-02-28T16:19:59;4.68;;;2.83;;
33902;SDS011;20194;50.950;5.346;2023-02-28T16:22:25;3.97;;;3.03;;
33902;SDS011;20194;50.950;5.346;2023-02-28T16:24:51;5.18;;;2.80;;
33902;SDS011;20194;50.950;5.346;2023-02-28T16:27:18;6.35;;;3.25;;
33902;SDS011;20194;50.950;5.346;2023-02-28T16:29:50;6.72;;;3.30;;
33902;SDS011;20194;50.950;5.346;2023-02-28T16:32:16;6.53;;;3.13;;
33902;SDS011;20194;50.950;5.346;2023-02-28T16:34:43;4.35;;;3.15;;
33902;SDS011;20194;50.950;5.346;2023-02-28T16:37:10;3.95;;;3.10;;
33902;SDS011;20194;50.950;5.346;2023-02-28T16:39:38;6.68;;;2.72;;
33902;SDS011;20194;50.950;5.346;2023-02-28T16:42:04;5.75;;;3.10;;
33902;SDS011;20194;50.950;5.346;2023-02-28T16:44:39;5.78;;;3.65;;
33902;SDS011;20194;50.950;5.346;2023-02-28T16:47:05;4.50;;;3.08;;
33902;SDS011;20194;50.950;5.346;2023-02-28T16:49:31;6.63;;;3.13;;
33902;SDS011;20194;50.950;5.346;2023-02-28T16:51:57;5.63;;;3.00;;
33902;SDS011;20194;50.950;5.346;2023-02-28T16:54:22;6.28;;;3.10;;
33902;SDS011;20194;50.950;5.346;2023-02-28T16:56:48;6.50;;;2.75;;
33902;SDS011;20194;50.950;5.346;2023-02-28T16:59:16;7.32;;;3.00;;
33902;SDS011;20194;50.950;5.346;2023-02-28T17:01:50;4.53;;;2.97;;
33902;SDS011;20194;50.950;5.346;2023-02-28T17:04:16;6.43;;;3.22;;
33902;SDS011;20194;50.950;5.346;2023-02-28T17:06:42;5.30;;;2.90;;
33902;SDS011;20194;50.950;5.346;2023-02-28T17:09:13;8.07;;;3.80;;
33902;SDS011;20194;50.950;5.346;2023-02-28T17:11:42;5.07;;;3.45;;
33902;SDS011;20194;50.950;5.346;2023-02-28T17:14:09;7.35;;;3.78;;
33902;SDS011;20194;50.950;5.346;2023-02-28T17:16:35;3.50;;;2.88;;
33902;SDS011;20194;50.950;5.346;2023-02-28T17:19:05;8.20;;;2.72;;
33902;SDS011;20194;50.950;5.346;2023-02-28T17:21:35;11.05;;;3.63;;
33902;SDS011;20194;50.950;5.346;2023-02-28T17:24:02;7.97;;;3.30;;
33902;SDS011;20194;50.950;5.346;2023-02-28T17:26:28;7.25;;;3.60;;
33902;SDS011;20194;50.950;5.346;2023-02-28T17:28:54;8.27;;;3.53;;
33902;SDS011;20194;50.950;5.346;2023-02-28T17:31:25;5.95;;;3.10;;
33902;SDS011;20194;50.950;5.346;2023-02-28T17:33:51;7.68;;;3.78;;
33902;SDS011;20194;50.950;5.346;2023-02-28T17:36:23;9.63;;;3.78;;
33902;SDS011;20194;50.950;5.346;2023-02-28T17:38:51;7.88;;;4.30;;
33902;SDS011;20194;50.950;5.346;2023-02-28T17:41:19;8.82;;;3.75;;
33902;SDS011;20194;50.950;5.346;2023-02-28T17:43:46;12.73;;;3.80;;
33902;SDS011;20194;50.950;5.346;2023-02-28T17:46:16;7.80;;;3.40;;
33902;SDS011;20194;50.950;5.346;2023-02-28T17:48:50;8.35;;;4.00;;
33902;SDS011;20194;50.950;5.346;2023-02-28T17:51:18;6.03;;;3.78;;
33902;SDS011;20194;50.950;5.346;2023-02-28T17:53:45;6.85;;;3.63;;